sensor_id;sensor_type;location;lat;lon;timestamp;pressure;altitude;pressure_sealevel;temperature;humidity
71795;BME280;59641;45.188;5.712;2024-03-29T00:02:02;97711.25;;;17.40;36.06
71795;BME280;59641;45.188;5.712;2024-03-29T00:04:27;97705.81;;;17.40;36.41
71795;BME280;59641;45.188;5.712;2024-03-29T00:06:53;97712.88;;;17.41;36.02
71795;BME280;59641;45.188;5.712;2024-03-29T00:09:19;97726.44;;;17.41;35.89
71795;BME280;59641;45.188;5.712;2024-03-29T00:11:44;97719.88;;;17.42;35.99
71795;BME280;59641;45.188;5.712;2024-03-29T00:14:10;97715.75;;;17.45;35.88
71795;BME280;59641;45.188;5.712;2024-03-29T00:16:35;97716.56;;;17.45;35.84
71795;BME280;59641;45.188;5.712;2024-03-29T00:19:00;97712.75;;;17.46;35.57
71795;BME280;59641;45.188;5.712;2024-03-29T00:21:25;97685.03;;;17.50;35.89
71795;BME280;59641;45.188;5.712;2024-03-29T00:23:51;97685.81;;;17.50;35.13
71795;BME280;59641;45.188;5.712;2024-03-29T00:26:16;97695.25;;;17.53;34.82
71795;BME280;59641;45.188;5.712;2024-03-29T00:28:42;97687.63;;;17.55;35.27
71795;BME280;59641;45.188;5.712;2024-03-29T00:31:08;97687.00;;;17.58;35.07
71795;BME280;59641;45.188;5.712;2024-03-29T00:33:35;97668.84;;;17.58;35.73
71795;BME280;59641;45.188;5.712;2024-03-29T00:36:00;97667.72;;;17.59;35.02
71795;BME280;59641;45.188;5.712;2024-03-29T00:38:26;97657.38;;;17.61;35.50
71795;BME280;59641;45.188;5.712;2024-03-29T00:40:51;97641.09;;;17.61;34.95
71795;BME280;59641;45.188;5.712;2024-03-29T00:43:16;97659.75;;;17.63;34.50
71795;BME280;59641;45.188;5.712;2024-03-29T00:45:42;97643.19;;;17.64;35.28
71795;BME280;59641;45.188;5.712;2024-03-29T00:48:07;97643.97;;;17.65;35.02
71795;BME280;59641;45.188;5.712;2024-03-29T00:50:33;97643.19;;;17.64;34.79
71795;BME280;59641;45.188;5.712;2024-03-29T00:52:59;97638.25;;;17.66;34.94
71795;BME280;59641;45.188;5.712;2024-03-29T00:55:25;97646.56;;;17.70;34.68
71795;BME280;59641;45.188;5.712;2024-03-29T00:57:51;97652.81;;;17.71;35.07
71795;BME280;59641;45.188;5.712;2024-03-29T01:00:16;97647.88;;;17.73;34.89
71795;BME280;59641;45.188;5.712;2024-03-29T01:02:41;97650.28;;;17.74;34.18
71795;BME280;59641;45.188;5.712;2024-03-29T01:05:07;97659.69;;;17.77;34.57
71795;BME280;59641;45.188;5.712;2024-03-29T01:07:33;97664.03;;;17.78;34.62
71795;BME280;59641;45.188;5.712;2024-03-29T01:09:58;97652.06;;;17.79;34.61
71795;BME280;59641;45.188;5.712;2024-03-29T01:12:23;97656.09;;;17.81;35.13
71795;BME280;59641;45.188;5.712;2024-03-29T01:14:49;97655.00;;;17.82;34.87
71795;BME280;59641;45.188;5.712;2024-03-29T01:17:14;97660.09;;;17.84;34.73
71795;BME280;59641;45.188;5.712;2024-03-29T01:19:39;97653.25;;;17.86;34.91
71795;BME280;59641;45.188;5.712;2024-03-29T01:22:05;97654.25;;;17.91;34.42
71795;BME280;59641;45.188;5.712;2024-03-29T01:24:30;97635.25;;;17.91;35.09
71795;BME280;59641;45.188;5.712;2024-03-29T01:26:55;97637.66;;;17.92;34.85
71795;BME280;59641;45.188;5.712;2024-03-29T01:29:21;97613.41;;;17.96;34.59
71795;BME280;59641;45.188;5.712;2024-03-29T01:31:46;97633.69;;;17.98;34.80
71795;BME280;59641;45.188;5.712;2024-03-29T01:34:12;97629.88;;;17.99;35.01
71795;BME280;59641;45.188;5.712;2024-03-29T01:36:37;97643.13;;;18.01;34.74
71795;BME280;59641;45.188;5.712;2024-03-29T01:39:02;97638.81;;;18.00;35.05
71795;BME280;59641;45.188;5.712;2024-03-29T01:41:29;97642.81;;;18.02;35.14
71795;BME280;59641;45.188;5.712;2024-03-29T01:43:54;97641.69;;;18.03;34.94
71795;BME280;59641;45.188;5.712;2024-03-29T01:46:23;97644.91;;;18.05;34.99
71795;BME280;59641;45.188;5.712;2024-03-29T01:48:53;97654.97;;;18.05;35.03
71795;BME280;59641;45.188;5.712;2024-03-29T01:51:19;97660.41;;;18.05;35.38
71795;BME280;59641;45.188;5.712;2024-03-29T01:53:47;97674.47;;;18.07;35.49
71795;BME280;59641;45.188;5.712;2024-03-29T01:56:14;97667.41;;;18.06;35.46
71795;BME280;59641;45.188;5.712;2024-03-29T01:58:41;97653.56;;;18.07;35.56
71795;BME280;59641;45.188;5.712;2024-03-29T02:01:07;97661.06;;;18.10;35.83
71795;BME280;59641;45.188;5.712;2024-03-29T02:03:33;97649.91;;;18.12;35.73
71795;BME280;59641;45.188;5.712;2024-03-29T02:05:58;97633.91;;;18.10;36.08
71795;BME280;59641;45.188;5.712;2024-03-29T02:08:27;97636.50;;;18.16;35.94
71795;BME280;59641;45.188;5.712;2024-03-29T02:10:53;97634.59;;;18.16;35.99
71795;BME280;59641;45.188;5.712;2024-03-29T02:13:19;97619.59;;;18.19;36.33
71795;BME280;59641;45.188;5.712;2024-03-29T02:15:44;97613.84;;;18.20;36.19
71795;BME280;59641;45.188;5.712;2024-03-29T02:18:09;97617.38;;;18.21;36.40
71795;BME280;59641;45.188;5.712;2024-03-29T02:20:35;97617.84;;;18.23;36.71
71795;BME280;59641;45.188;5.712;2024-03-29T02:23:06;97624.28;;;18.27;36.53
71795;BME280;59641;45.188;5.712;2024-03-29T02:25:33;97635.44;;;18.25;36.48
71795;BME280;59641;45.188;5.712;2024-03-29T02:27:59;97642.19;;;18.28;36.84
71795;BME280;59641;45.188;5.712;2024-03-29T02:30:26;97638.34;;;18.29;36.69
71795;BME280;59641;45.188;5.712;2024-03-29T02:32:52;97628.28;;;18.29;37.07
71795;BME280;59641;45.188;5.712;2024-03-29T02:35:17;97637.53;;;18.28;37.04
71795;BME280;59641;45.188;5.712;2024-03-29T02:37:43;97632.41;;;18.27;37.52
71795;BME280;59641;45.188;5.712;2024-03-29T02:40:08;97634.34;;;18.26;37.55
71795;BME280;59641;45.188;5.712;2024-03-29T02:42:34;97644.06;;;18.27;37.30
71795;BME280;59641;45.188;5.712;2024-03-29T02:45:01;97637.53;;;18.28;37.76
71795;BME280;59641;45.188;5.712;2024-03-29T02:47:27;97626.69;;;18.28;37.61
71795;BME280;59641;45.188;5.712;2024-03-29T02:49:52;97624.75;;;18.29;37.91
71795;BME280;59641;45.188;5.712;2024-03-29T02:52:17;97612.78;;;18.30;37.83
71795;BME280;59641;45.188;5.712;2024-03-29T02:54:43;97605.91;;;18.33;37.93
71795;BME280;59641;45.188;5.712;2024-03-29T02:57:09;97603.69;;;18.35;37.93
71795;BME280;59641;45.188;5.712;2024-03-29T02:59:34;97606.41;;;18.35;37.95
71795;BME280;59641;45.188;5.712;2024-03-29T03:02:00;97596.84;;;18.37;38.26
71795;BME280;59641;45.188;5.712;2024-03-29T03:04:25;97584.09;;;18.38;38.51
71795;BME280;59641;45.188;5.712;2024-03-29T03:06:50;97576.38;;;18.40;38.20
71795;BME280;59641;45.188;5.712;2024-03-29T03:09:16;97569.88;;;18.41;38.36
71795;BME280;59641;45.188;5.712;2024-03-29T03:11:59;97569.53;;;18.42;38.46
71795;BME280;59641;45.188;5.712;2024-03-29T03:14:25;97575.44;;;18.44;38.65
71795;BME280;59641;45.188;5.712;2024-03-29T03:16:50;97561.56;;;18.46;38.50
71795;BME280;59641;45.188;5.712;2024-03-29T03:19:15;97539.19;;;18.49;38.92
71795;BME280;59641;45.188;5.712;2024-03-29T03:21:41;97553.28;;;18.51;38.78
71795;BME280;59641;45.188;5.712;2024-03-29T03:24:06;97528.53;;;18.52;39.12
71795;BME280;59641;45.188;5.712;2024-03-29T03:26:31;97528.53;;;18.52;39.32
71795;BME280;59641;45.188;5.712;2024-03-29T03:28:57;97516.22;;;18.55;39.05
71795;BME280;59641;45.188;5.712;2024-03-29T03:31:22;97535.72;;;18.57;39.37
71795;BME280;59641;45.188;5.712;2024-03-29T03:33:47;97529.66;;;18.60;39.11
71795;BME280;59641;45.188;5.712;2024-03-29T03:36:13;97514.63;;;18.63;39.21
71795;BME280;59641;45.188;5.712;2024-03-29T03:38:38;97515.91;;;18.65;39.41
71795;BME280;59641;45.188;5.712;2024-03-29T03:41:05;97511.44;;;18.69;39.13
71795;BME280;59641;45.188;5.712;2024-03-29T03:43:30;97494.03;;;18.70;39.15
71795;BME280;59641;45.188;5.712;2024-03-29T03:46:00;97486.34;;;18.72;39.24
71795;BME280;59641;45.188;5.712;2024-03-29T03:48:25;97486.34;;;18.72;39.49
71795;BME280;59641;45.188;5.712;2024-03-29T03:50:51;97492.00;;;18.76;39.49
71795;BME280;59641;45.188;5.712;2024-03-29T03:53:16;97490.06;;;18.77;39.93
71795;BME280;59641;45.188;5.712;2024-03-29T03:55:41;97457.13;;;18.78;39.49
71795;BME280;59641;45.188;5.712;2024-03-29T03:58:07;97456.03;;;18.79;39.89
71795;BME280;59641;45.188;5.712;2024-03-29T04:00:33;97455.69;;;18.81;39.66
71795;BME280;59641;45.188;5.712;2024-03-29T04:02:58;97451.88;;;18.82;39.98
71795;BME280;59641;45.188;5.712;2024-03-29T04:05:24;97440.69;;;18.83;39.75
71795;BME280;59641;45.188;5.712;2024-03-29T04:07:51;97443.06;;;18.85;39.83
71795;BME280;59641;45.188;5.712;2024-03-29T04:10:16;97429.16;;;18.86;40.07
71795;BME280;59641;45.188;5.712;2024-03-29T04:12:41;97429.66;;;18.88;40.15
71795;BME280;59641;45.188;5.712;2024-03-29T04:15:07;97419.56;;;18.89;40.10
71795;BME280;59641;45.188;5.712;2024-03-29T04:17:32;97412.22;;;18.89;39.87
71795;BME280;59641;45.188;5.712;2024-03-29T04:19:59;97419.25;;;18.90;40.23
71795;BME280;59641;45.188;5.712;2024-03-29T04:22:24;97422.78;;;18.91;40.21
71795;BME280;59641;45.188;5.712;2024-03-29T04:24:50;97409.66;;;18.93;40.06
71795;BME280;59641;45.188;5.712;2024-03-29T04:27:16;97422.13;;;18.94;40.03
71795;BME280;59641;45.188;5.712;2024-03-29T04:29:41;97421.81;;;18.96;40.17
71795;BME280;59641;45.188;5.712;2024-03-29T04:32:08;97413.31;;;18.97;40.15
71795;BME280;59641;45.188;5.712;2024-03-29T04:34:33;97417.97;;;18.97;40.25
71795;BME280;59641;45.188;5.712;2024-03-29T04:36:58;97395.91;;;18.98;40.03
71795;BME280;59641;45.188;5.712;2024-03-29T04:39:24;97394.78;;;18.99;40.21
71795;BME280;59641;45.188;5.712;2024-03-29T04:41:49;97380.88;;;19.01;40.31
71795;BME280;59641;45.188;5.712;2024-03-29T04:44:23;97394.13;;;19.02;40.27
71795;BME280;59641;45.188;5.712;2024-03-29T04:46:49;97388.69;;;19.02;40.19
71795;BME280;59641;45.188;5.712;2024-03-29T04:49:15;97389.81;;;19.01;40.55
71795;BME280;59641;45.188;5.712;2024-03-29T04:51:43;97397.97;;;19.01;40.25
71795;BME280;59641;45.188;5.712;2024-03-29T04:54:08;97389.81;;;19.01;40.24
71795;BME280;59641;45.188;5.712;2024-03-29T04:56:34;97412.03;;;19.03;40.44
71795;BME280;59641;45.188;5.712;2024-03-29T04:59:01;97404.69;;;19.04;40.30
71795;BME280;59641;45.188;5.712;2024-03-29T05:01:27;97393.81;;;19.04;40.32
71795;BME280;59641;45.188;5.712;2024-03-29T05:03:52;97384.88;;;19.03;40.25
71795;BME280;59641;45.188;5.712;2024-03-29T05:06:18;97407.41;;;19.04;40.06
71795;BME280;59641;45.188;5.712;2024-03-29T05:08:43;97414.09;;;19.06;40.35
71795;BME280;59641;45.188;5.712;2024-03-29T05:11:08;97422.25;;;19.06;40.17
71795;BME280;59641;45.188;5.712;2024-03-29T05:13:36;97425.47;;;19.08;40.16
71795;BME280;59641;45.188;5.712;2024-03-29T05:16:01;97395.56;;;19.08;40.16
71795;BME280;59641;45.188;5.712;2024-03-29T05:18:27;97424.81;;;19.11;40.17
71795;BME280;59641;45.188;5.712;2024-03-29T05:20:52;97401.97;;;19.12;40.02
71795;BME280;59641;45.188;5.712;2024-03-29T05:23:17;97432.66;;;19.13;40.16
71795;BME280;59641;45.188;5.712;2024-03-29T05:25:43;97429.94;;;19.13;40.38
71795;BME280;59641;45.188;5.712;2024-03-29T05:28:09;97440.63;;;19.18;40.00
71795;BME280;59641;45.188;5.712;2024-03-29T05:30:34;97441.44;;;19.19;40.24
71795;BME280;59641;45.188;5.712;2024-03-29T05:33:02;97443.03;;;19.20;40.11
71795;BME280;59641;45.188;5.712;2024-03-29T05:35:27;97460.16;;;19.20;40.14
71795;BME280;59641;45.188;5.712;2024-03-29T05:37:53;97464.44;;;19.21;40.17
71795;BME280;59641;45.188;5.712;2024-03-29T05:40:19;97457.09;;;19.22;40.18
71795;BME280;59641;45.188;5.712;2024-03-29T05:42:50;97455.66;;;19.24;40.22
71795;BME280;59641;45.188;5.712;2024-03-29T05:45:29;97450.06;;;19.29;40.10
71795;BME280;59641;45.188;5.712;2024-03-29T05:47:56;97439.19;;;19.29;40.29
71795;BME280;59641;45.188;5.712;2024-03-29T05:50:22;97445.41;;;19.30;39.89
71795;BME280;59641;45.188;5.712;2024-03-29T05:52:48;97457.88;;;19.31;40.18
71795;BME280;59641;45.188;5.712;2024-03-29T05:55:14;97455.16;;;19.31;39.93
71795;BME280;59641;45.188;5.712;2024-03-29T05:57:40;97438.53;;;19.32;40.21
71795;BME280;59641;45.188;5.712;2024-03-29T06:00:10;97452.25;;;19.36;39.86
71795;BME280;59641;45.188;5.712;2024-03-29T06:02:36;97444.91;;;19.36;40.02
71795;BME280;59641;45.188;5.712;2024-03-29T06:05:02;97438.34;;;19.37;40.12
71795;BME280;59641;45.188;5.712;2024-03-29T06:07:27;97480.28;;;19.36;40.09
71795;BME280;59641;45.188;5.712;2024-03-29T06:09:54;97457.38;;;19.37;40.25
71795;BME280;59641;45.188;5.712;2024-03-29T06:12:20;97463.31;;;19.40;39.97
71795;BME280;59641;45.188;5.712;2024-03-29T06:14:45;97464.56;;;19.42;40.01
71795;BME280;59641;45.188;5.712;2024-03-29T06:17:29;97469.69;;;19.44;40.08
71795;BME280;59641;45.188;5.712;2024-03-29T06:19:55;97479.91;;;19.47;39.85
71795;BME280;59641;45.188;5.712;2024-03-29T06:22:22;97488.88;;;19.47;39.68
71795;BME280;59641;45.188;5.712;2024-03-29T06:24:51;97486.16;;;19.47;39.72
71795;BME280;59641;45.188;5.712;2024-03-29T06:27:20;97484.72;;;19.50;39.86
71795;BME280;59641;45.188;5.712;2024-03-29T06:29:49;97493.03;;;19.53;39.67
71795;BME280;59641;45.188;5.712;2024-03-29T06:32:14;97493.03;;;19.53;39.26
71795;BME280;59641;45.188;5.712;2024-03-29T06:34:39;97504.41;;;19.55;39.61
71795;BME280;59641;45.188;5.712;2024-03-29T06:37:05;97513.81;;;19.58;39.54
71795;BME280;59641;45.188;5.712;2024-03-29T06:39:30;97534.94;;;19.61;39.77
71795;BME280;59641;45.188;5.712;2024-03-29T06:41:55;97528.03;;;19.64;39.68
71795;BME280;59641;45.188;5.712;2024-03-29T06:44:21;97536.69;;;19.66;39.77
71795;BME280;59641;45.188;5.712;2024-03-29T06:46:46;97527.38;;;19.67;39.56
71795;BME280;59641;45.188;5.712;2024-03-29T06:49:12;97557.03;;;19.68;39.62
71795;BME280;59641;45.188;5.712;2024-03-29T06:51:39;97550.81;;;19.68;39.60
71795;BME280;59641;45.188;5.712;2024-03-29T06:54:05;97552.88;;;19.71;39.57
71795;BME280;59641;45.188;5.712;2024-03-29T06:56:30;97557.19;;;19.72;39.63
71795;BME280;59641;45.188;5.712;2024-03-29T06:58:56;97551.41;;;19.73;39.46
71795;BME280;59641;45.188;5.712;2024-03-29T07:01:21;97548.38;;;19.75;39.72
71795;BME280;59641;45.188;5.712;2024-03-29T07:03:47;97553.47;;;19.76;39.85
71795;BME280;59641;45.188;5.712;2024-03-29T07:06:12;97568.72;;;19.77;39.72
71795;BME280;59641;45.188;5.712;2024-03-29T07:08:38;97562.13;;;19.78;39.91
71795;BME280;59641;45.188;5.712;2024-03-29T07:11:03;97560.53;;;19.77;39.84
71795;BME280;59641;45.188;5.712;2024-03-29T07:13:30;97560.19;;;19.79;39.68
71795;BME280;59641;45.188;5.712;2024-03-29T07:16:01;97560.69;;;19.81;39.74
71795;BME280;59641;45.188;5.712;2024-03-29T07:18:27;97568.38;;;19.79;39.89
71795;BME280;59641;45.188;5.712;2024-03-29T07:20:53;97588.56;;;19.78;39.84
71795;BME280;59641;45.188;5.712;2024-03-29T07:23:18;97583.59;;;19.80;40.10
71795;BME280;59641;45.188;5.712;2024-03-29T07:25:44;97591.75;;;19.80;40.03
71795;BME280;59641;45.188;5.712;2024-03-29T07:28:11;97578.94;;;19.81;40.23
71795;BME280;59641;45.188;5.712;2024-03-29T07:30:40;97566.13;;;19.81;40.16
71795;BME280;59641;45.188;5.712;2024-03-29T07:33:05;97587.09;;;19.81;40.13
71795;BME280;59641;45.188;5.712;2024-03-29T07:35:30;97575.06;;;19.82;40.09
71795;BME280;59641;45.188;5.712;2024-03-29T07:37:56;97589.03;;;19.80;40.08
71795;BME280;59641;45.188;5.712;2024-03-29T07:40:22;97603.44;;;19.81;40.37
71795;BME280;59641;45.188;5.712;2024-03-29T07:42:47;97604.56;;;19.79;40.21
71795;BME280;59641;45.188;5.712;2024-03-29T07:45:12;97599.44;;;19.78;40.57
71795;BME280;59641;45.188;5.712;2024-03-29T07:47:38;97604.09;;;19.77;40.40
71795;BME280;59641;45.188;5.712;2024-03-29T07:50:04;97602.94;;;19.78;40.66
71795;BME280;59641;45.188;5.712;2024-03-29T07:52:32;97604.56;;;19.79;40.74
71795;BME280;59641;45.188;5.712;2024-03-29T07:54:57;97604.56;;;19.79;40.53
71795;BME280;59641;45.188;5.712;2024-03-29T07:57:22;97594.47;;;19.80;40.62
71795;BME280;59641;45.188;5.712;2024-03-29T07:59:50;97613.19;;;19.82;40.50
71795;BME280;59641;45.188;5.712;2024-03-29T08:02:15;97601.19;;;19.83;40.55
71795;BME280;59641;45.188;5.712;2024-03-29T08:04:41;97619.09;;;19.84;40.84
71795;BME280;59641;45.188;5.712;2024-03-29T08:07:08;97610.63;;;19.85;40.80
71795;BME280;59641;45.188;5.712;2024-03-29T08:09:33;97604.88;;;19.87;40.85
71795;BME280;59641;45.188;5.712;2024-03-29T08:11:59;97608.53;;;19.91;40.75
71795;BME280;59641;45.188;5.712;2024-03-29T08:14:25;97615.25;;;19.93;40.96
71795;BME280;59641;45.188;5.712;2024-03-29T08:16:53;97605.97;;;19.94;40.66
71795;BME280;59641;45.188;5.712;2024-03-29T08:19:19;97605.63;;;19.96;40.53
71795;BME280;59641;45.188;5.712;2024-03-29T08:21:45;97609.63;;;19.98;40.78
71795;BME280;59641;45.188;5.712;2024-03-29T08:24:10;97611.72;;;20.02;40.63
71795;BME280;59641;45.188;5.712;2024-03-29T08:26:36;97611.84;;;20.05;40.53
71795;BME280;59641;45.188;5.712;2024-03-29T08:29:02;97615.06;;;20.07;40.50
71795;BME280;59641;45.188;5.712;2024-03-29T08:31:27;97597.59;;;20.08;40.06
71795;BME280;59641;45.188;5.712;2024-03-29T08:33:53;97603.50;;;20.10;39.92
71795;BME280;59641;45.188;5.712;2024-03-29T08:36:18;97626.56;;;20.13;39.83
71795;BME280;59641;45.188;5.712;2024-03-29T08:38:43;97611.50;;;20.15;40.08
71795;BME280;59641;45.188;5.712;2024-03-29T08:41:11;97607.66;;;20.16;39.89
71795;BME280;59641;45.188;5.712;2024-03-29T08:43:37;97604.63;;;20.18;39.38
71795;BME280;59641;45.188;5.712;2024-03-29T08:46:02;97609.06;;;20.22;39.35
71795;BME280;59641;45.188;5.712;2024-03-29T08:48:27;97603.00;;;20.26;39.42
71795;BME280;59641;45.188;5.712;2024-03-29T08:50:53;97606.97;;;20.28;39.05
71795;BME280;59641;45.188;5.712;2024-03-29T08:53:19;97606.63;;;20.30;39.10
71795;BME280;59641;45.188;5.712;2024-03-29T08:55:46;97596.22;;;20.32;38.97
71795;BME280;59641;45.188;5.712;2024-03-29T08:58:12;97608.38;;;20.34;38.86
71795;BME280;59641;45.188;5.712;2024-03-29T09:00:37;97600.22;;;20.34;38.33
71795;BME280;59641;45.188;5.712;2024-03-29T09:03:02;97602.63;;;20.36;38.33
71795;BME280;59641;45.188;5.712;2024-03-29T09:05:28;97599.59;;;20.37;38.22
71795;BME280;59641;45.188;5.712;2024-03-29T09:07:54;97600.84;;;20.40;38.18
71795;BME280;59641;45.188;5.712;2024-03-29T09:10:22;97600.66;;;20.45;38.36
71795;BME280;59641;45.188;5.712;2024-03-29T09:12:49;97600.66;;;20.45;38.10
71795;BME280;59641;45.188;5.712;2024-03-29T09:15:14;97587.53;;;20.47;37.76
71795;BME280;59641;45.188;5.712;2024-03-29T09:17:42;97591.50;;;20.50;37.84
71795;BME280;59641;45.188;5.712;2024-03-29T09:20:08;97588.13;;;20.53;37.67
71795;BME280;59641;45.188;5.712;2024-03-29T09:22:34;97602.72;;;20.57;37.72
71795;BME280;59641;45.188;5.712;2024-03-29T09:24:59;97599.34;;;20.60;37.78
71795;BME280;59641;45.188;5.712;2024-03-29T09:27:27;97591.63;;;20.62;37.33
71795;BME280;59641;45.188;5.712;2024-03-29T09:29:52;97590.97;;;20.65;37.18
71795;BME280;59641;45.188;5.712;2024-03-29T09:32:18;97594.97;;;20.68;36.44
71795;BME280;59641;45.188;5.712;2024-03-29T09:34:45;97580.66;;;20.71;37.18
71795;BME280;59641;45.188;5.712;2024-03-29T09:37:11;97585.47;;;20.74;36.67
71795;BME280;59641;45.188;5.712;2024-03-29T09:39:36;97578.56;;;20.76;37.09
71795;BME280;59641;45.188;5.712;2024-03-29T09:42:06;97578.22;;;20.78;36.61
71795;BME280;59641;45.188;5.712;2024-03-29T09:44:33;97579.16;;;20.82;35.99
71795;BME280;59641;45.188;5.712;2024-03-29T09:47:04;97558.31;;;20.86;36.27
71795;BME280;59641;45.188;5.712;2024-03-29T09:49:31;97554.13;;;20.89;36.56
71795;BME280;59641;45.188;5.712;2024-03-29T09:51:58;97547.19;;;20.91;36.19
71795;BME280;59641;45.188;5.712;2024-03-29T09:54:27;97538.34;;;20.94;35.85
71795;BME280;59641;45.188;5.712;2024-03-29T09:56:55;97529.53;;;20.97;36.18
71795;BME280;59641;45.188;5.712;2024-03-29T09:59:21;97537.81;;;21.01;36.09
71795;BME280;59641;45.188;5.712;2024-03-29T10:01:48;97535.56;;;21.03;35.89
71795;BME280;59641;45.188;5.712;2024-03-29T10:04:15;97518.53;;;21.06;36.11
71795;BME280;59641;45.188;5.712;2024-03-29T10:06:44;97523.66;;;21.08;35.04
71795;BME280;59641;45.188;5.712;2024-03-29T10:09:12;97516.75;;;21.10;35.48
71795;BME280;59641;45.188;5.712;2024-03-29T10:11:37;97514.81;;;21.11;35.26
71795;BME280;59641;45.188;5.712;2024-03-29T10:14:03;97495.03;;;21.14;35.43
71795;BME280;59641;45.188;5.712;2024-03-29T10:16:33;97495.97;;;21.18;35.24
71795;BME280;59641;45.188;5.712;2024-03-29T10:18:59;97495.28;;;21.21;35.44
71795;BME280;59641;45.188;5.712;2024-03-29T10:21:24;97503.63;;;21.24;34.70
71795;BME280;59641;45.188;5.712;2024-03-29T10:23:51;97504.19;;;21.30;35.06
71795;BME280;59641;45.188;5.712;2024-03-29T10:26:16;97500.78;;;21.33;34.90
71795;BME280;59641;45.188;5.712;2024-03-29T10:28:43;97481.84;;;21.37;34.53
71795;BME280;59641;45.188;5.712;2024-03-29T10:31:09;97494.03;;;21.39;33.92
71795;BME280;59641;45.188;5.712;2024-03-29T10:33:34;97512.44;;;21.42;34.17
71795;BME280;59641;45.188;5.712;2024-03-29T10:36:01;97503.63;;;21.45;34.29
71795;BME280;59641;45.188;5.712;2024-03-29T10:38:30;97499.84;;;21.50;34.52
71795;BME280;59641;45.188;5.712;2024-03-29T10:40:56;97497.59;;;21.52;34.16
71795;BME280;59641;45.188;5.712;2024-03-29T10:43:23;97491.91;;;21.57;34.16
71795;BME280;59641;45.188;5.712;2024-03-29T10:45:49;97491.25;;;21.60;33.39
71795;BME280;59641;45.188;5.712;2024-03-29T10:48:16;97501.94;;;21.65;33.72
71795;BME280;59641;45.188;5.712;2024-03-29T10:50:43;97486.16;;;21.71;34.06
71795;BME280;59641;45.188;5.712;2024-03-29T10:53:09;97491.28;;;21.73;33.63
71795;BME280;59641;45.188;5.712;2024-03-29T10:55:37;97490.59;;;21.76;33.37
71795;BME280;59641;45.188;5.712;2024-03-29T10:58:04;97487.19;;;21.79;32.68
71795;BME280;59641;45.188;5.712;2024-03-29T11:00:36;97467.41;;;21.82;32.74
71795;BME280;59641;45.188;5.712;2024-03-29T11:06:02;97464.56;;;21.90;32.48
71795;BME280;59641;45.188;5.712;2024-03-29T11:08:31;97447.50;;;21.94;32.23
71795;BME280;59641;45.188;5.712;2024-03-29T11:11:00;97434.75;;;21.98;32.35
71795;BME280;59641;45.188;5.712;2024-03-29T11:13:45;97445.00;;;22.01;30.14
71795;BME280;59641;45.188;5.712;2024-03-29T11:16:12;97444.31;;;22.04;32.12
71795;BME280;59641;45.188;5.712;2024-03-29T11:18:41;97438.94;;;22.07;31.44
71795;BME280;59641;45.188;5.712;2024-03-29T11:21:08;97433.63;;;22.11;32.02
71795;BME280;59641;45.188;5.712;2024-03-29T11:23:35;97437.22;;;22.15;32.04
71795;BME280;59641;45.188;5.712;2024-03-29T11:26:01;97427.22;;;22.19;31.83
71795;BME280;59641;45.188;5.712;2024-03-29T11:31:00;97410.75;;;22.28;31.91
71795;BME280;59641;45.188;5.712;2024-03-29T11:33:32;97408.91;;;22.32;31.13
71795;BME280;59641;45.188;5.712;2024-03-29T11:35:59;97396.94;;;22.37;31.36
71795;BME280;59641;45.188;5.712;2024-03-29T11:38:35;97410.81;;;22.44;30.84
71795;BME280;59641;45.188;5.712;2024-03-29T11:41:11;97400.44;;;22.49;30.54
71795;BME280;59641;45.188;5.712;2024-03-29T11:43:38;97408.50;;;22.58;31.07
71795;BME280;59641;45.188;5.712;2024-03-29T11:46:06;97384.91;;;22.66;29.43
71795;BME280;59641;45.188;5.712;2024-03-29T11:48:32;97400.44;;;22.77;30.06
71795;BME280;59641;45.188;5.712;2024-03-29T11:50:59;97386.31;;;22.88;30.14
71795;BME280;59641;45.188;5.712;2024-03-29T11:53:25;97401.88;;;23.00;29.30
71795;BME280;59641;45.188;5.712;2024-03-29T11:55:53;97382.22;;;23.10;28.58
71795;BME280;59641;45.188;5.712;2024-03-29T11:58:26;97389.56;;;23.22;29.56
71795;BME280;59641;45.188;5.712;2024-03-29T12:00:53;97393.28;;;23.29;29.40
71795;BME280;59641;45.188;5.712;2024-03-29T12:03:19;97372.28;;;23.33;28.68
71795;BME280;59641;45.188;5.712;2024-03-29T12:05:46;97367.69;;;23.37;28.19
71795;BME280;59641;45.188;5.712;2024-03-29T12:08:13;97375.22;;;23.41;28.86
71795;BME280;59641;45.188;5.712;2024-03-29T12:10:39;97376.44;;;23.43;28.64
71795;BME280;59641;45.188;5.712;2024-03-29T12:13:05;97379.63;;;23.45;29.17
71795;BME280;59641;45.188;5.712;2024-03-29T12:15:31;97356.56;;;23.46;28.03
71795;BME280;59641;45.188;5.712;2024-03-29T12:18:06;97369.47;;;23.46;27.94
71795;BME280;59641;45.188;5.712;2024-03-29T12:20:35;97359.66;;;23.45;27.88
71795;BME280;59641;45.188;5.712;2024-03-29T12:23:04;97349.06;;;23.43;28.15
71795;BME280;59641;45.188;5.712;2024-03-29T12:25:31;97350.19;;;23.42;28.07
71795;BME280;59641;45.188;5.712;2024-03-29T12:27:58;97349.41;;;23.42;27.70
71795;BME280;59641;45.188;5.712;2024-03-29T12:30:24;97359.56;;;23.41;27.55
71795;BME280;59641;45.188;5.712;2024-03-29T12:33:11;97348.25;;;23.43;28.03
71795;BME280;59641;45.188;5.712;2024-03-29T12:35:36;97357.19;;;23.39;27.70
71795;BME280;59641;45.188;5.712;2024-03-29T12:38:03;97328.22;;;23.38;27.56
71795;BME280;59641;45.188;5.712;2024-03-29T12:40:30;97339.19;;;23.38;27.06
71795;BME280;59641;45.188;5.712;2024-03-29T12:43:02;97335.22;;;23.36;27.81
71795;BME280;59641;45.188;5.712;2024-03-29T12:45:28;97316.06;;;23.36;28.00
71795;BME280;59641;45.188;5.712;2024-03-29T12:47:54;97334.75;;;23.34;27.56
71795;BME280;59641;45.188;5.712;2024-03-29T12:50:40;97331.31;;;23.37;27.88
71795;BME280;59641;45.188;5.712;2024-03-29T12:53:07;97318.34;;;23.34;27.11
71795;BME280;59641;45.188;5.712;2024-03-29T12:55:32;97318.78;;;23.36;27.08
71795;BME280;59641;45.188;5.712;2024-03-29T12:58:02;97310.22;;;23.37;27.30
71795;BME280;59641;45.188;5.712;2024-03-29T13:00:33;97303.59;;;23.38;27.18
71795;BME280;59641;45.188;5.712;2024-03-29T13:02:59;97304.75;;;23.37;27.15